sensor_id;sensor_type;location;lat;lon;timestamp;temperature;humidity
11003;DHT22;5554;55.796;13.090;2022-08-04T00:01:21;18.50;99.90
11003;DHT22;5554;55.796;13.090;2022-08-04T00:03:56;18.60;99.90
11003;DHT22;5554;55.796;13.090;2022-08-04T00:06:33;18.60;99.90
11003;DHT22;5554;55.796;13.090;2022-08-04T00:09:09;18.50;99.90
11003;DHT22;5554;55.796;13.090;2022-08-04T00:11:50;18.50;99.90
11003;DHT22;5554;55.796;13.090;2022-08-04T00:14:22;18.40;99.90
11003;DHT22;5554;55.796;13.090;2022-08-04T00:16:51;18.40;99.90
11003;DHT22;5554;55.796;13.090;2022-08-04T00:19:32;18.40;99.90
11003;DHT22;5554;55.796;13.090;2022-08-04T00:22:03;18.30;99.90
11003;DHT22;5554;55.796;13.090;2022-08-04T00:24:44;18.20;99.90
11003;DHT22;5554;55.796;13.090;2022-08-04T00:27:11;18.10;99.90
11003;DHT22;5554;55.796;13.090;2022-08-04T00:29:40;18.10;99.90
11003;DHT22;5554;55.796;13.090;2022-08-04T00:32:07;18.20;99.90
11003;DHT22;5554;55.796;13.090;2022-08-04T00:34:36;18.20;99.90
11003;DHT22;5554;55.796;13.090;2022-08-04T00:37:07;18.30;99.90
11003;DHT22;5554;55.796;13.090;2022-08-04T00:39:34;18.20;99.90
11003;DHT22;5554;55.796;13.090;2022-08-04T00:42:28;18.20;99.90
11003;DHT22;5554;55.796;13.090;2022-08-04T00:45:17;18.00;99.90
11003;DHT22;5554;55.796;13.090;2022-08-04T00:47:56;17.90;99.90
11003;DHT22;5554;55.796;13.090;2022-08-04T00:50:43;17.80;99.90
11003;DHT22;5554;55.796;13.090;2022-08-04T00:53:16;17.80;99.90
11003;DHT22;5554;55.796;13.090;2022-08-04T00:56:04;17.90;99.90
11003;DHT22;5554;55.796;13.090;2022-08-04T00:58:45;17.60;99.90
11003;DHT22;5554;55.796;13.090;2022-08-04T01:01:27;17.40;99.90
11003;DHT22;5554;55.796;13.090;2022-08-04T01:04:03;17.40;99.90
11003;DHT22;5554;55.796;13.090;2022-08-04T01:06:36;17.50;99.90
11003;DHT22;5554;55.796;13.090;2022-08-04T01:09:25;17.50;99.90
11003;DHT22;5554;55.796;13.090;2022-08-04T01:12:16;17.40;99.90
11003;DHT22;5554;55.796;13.090;2022-08-04T01:15:03;17.50;99.90
11003;DHT22;5554;55.796;13.090;2022-08-04T01:17:46;17.30;99.90
11003;DHT22;5554;55.796;13.090;2022-08-04T01:20:20;17.20;99.90
11003;DHT22;5554;55.796;13.090;2022-08-04T01:23:15;17.30;99.90
11003;DHT22;5554;55.796;13.090;2022-08-04T01:26:03;17.30;99.90
11003;DHT22;5554;55.796;13.090;2022-08-04T01:31:18;17.30;99.90
11003;DHT22;5554;55.796;13.090;2022-08-04T01:33:48;17.30;99.90
11003;DHT22;5554;55.796;13.090;2022-08-04T01:36:18;17.30;99.90
11003;DHT22;5554;55.796;13.090;2022-08-04T01:38:48;17.30;99.90
11003;DHT22;5554;55.796;13.090;2022-08-04T01:41:18;17.20;99.90
11003;DHT22;5554;55.796;13.090;2022-08-04T01:43:46;17.20;99.90
11003;DHT22;5554;55.796;13.090;2022-08-04T01:46:15;17.00;99.90
11003;DHT22;5554;55.796;13.090;2022-08-04T01:48:45;17.00;99.90
11003;DHT22;5554;55.796;13.090;2022-08-04T01:51:12;17.00;99.90
11003;DHT22;5554;55.796;13.090;2022-08-04T01:53:41;16.90;99.90
11003;DHT22;5554;55.796;13.090;2022-08-04T01:56:10;16.90;99.90
11003;DHT22;5554;55.796;13.090;2022-08-04T01:58:44;17.10;99.90
11003;DHT22;5554;55.796;13.090;2022-08-04T02:01:13;17.10;99.90
11003;DHT22;5554;55.796;13.090;2022-08-04T02:03:43;17.10;99.90
11003;DHT22;5554;55.796;13.090;2022-08-04T02:06:17;17.30;99.90
11003;DHT22;5554;55.796;13.090;2022-08-04T02:09:02;17.30;99.90
11003;DHT22;5554;55.796;13.090;2022-08-04T02:11:33;17.20;99.90
11003;DHT22;5554;55.796;13.090;2022-08-04T02:14:08;17.10;99.90
11003;DHT22;5554;55.796;13.090;2022-08-04T02:16:43;17.10;99.90
11003;DHT22;5554;55.796;13.090;2022-08-04T02:19:21;17.10;99.90
11003;DHT22;5554;55.796;13.090;2022-08-04T02:22:07;17.10;99.90
11003;DHT22;5554;55.796;13.090;2022-08-04T02:24:40;17.00;99.90
11003;DHT22;5554;55.796;13.090;2022-08-04T02:27:10;17.00;99.90
11003;DHT22;5554;55.796;13.090;2022-08-04T02:29:42;16.90;99.90
11003;DHT22;5554;55.796;13.090;2022-08-04T02:32:26;16.70;99.90
11003;DHT22;5554;55.796;13.090;2022-08-04T02:34:59;16.70;99.90
11003;DHT22;5554;55.796;13.090;2022-08-04T02:37:30;16.70;99.90
11003;DHT22;5554;55.796;13.090;2022-08-04T02:39:59;16.70;99.90
11003;DHT22;5554;55.796;13.090;2022-08-04T02:42:28;16.80;99.90
11003;DHT22;5554;55.796;13.090;2022-08-04T02:44:57;17.00;99.90
11003;DHT22;5554;55.796;13.090;2022-08-04T02:47:27;17.10;99.90
11003;DHT22;5554;55.796;13.090;2022-08-04T02:49:56;17.20;99.90
11003;DHT22;5554;55.796;13.090;2022-08-04T02:52:24;17.20;99.90
11003;DHT22;5554;55.796;13.090;2022-08-04T02:54:53;17.30;99.90
11003;DHT22;5554;55.796;13.090;2022-08-04T02:57:23;17.30;99.90
11003;DHT22;5554;55.796;13.090;2022-08-04T03:00:04;17.30;99.90
11003;DHT22;5554;55.796;13.090;2022-08-04T03:02:47;17.40;99.90
11003;DHT22;5554;55.796;13.090;2022-08-04T03:05:18;17.40;99.90
11003;DHT22;5554;55.796;13.090;2022-08-04T03:08:21;17.40;99.90
11003;DHT22;5554;55.796;13.090;2022-08-04T03:11:24;17.30;99.90
11003;DHT22;5554;55.796;13.090;2022-08-04T03:14:33;17.20;99.90
11003;DHT22;5554;55.796;13.090;2022-08-04T03:20:31;17.00;99.90
11003;DHT22;5554;55.796;13.090;2022-08-04T03:26:47;16.50;99.90
11003;DHT22;5554;55.796;13.090;2022-08-04T03:29:42;16.70;99.90
11003;DHT22;5554;55.796;13.090;2022-08-04T03:32:42;16.80;99.90
11003;DHT22;5554;55.796;13.090;2022-08-04T03:35:34;17.00;99.90
11003;DHT22;5554;55.796;13.090;2022-08-04T03:38:29;17.00;99.90
11003;DHT22;5554;55.796;13.090;2022-08-04T03:41:26;16.90;99.90
11003;DHT22;5554;55.796;13.090;2022-08-04T03:47:34;16.80;99.90
11003;DHT22;5554;55.796;13.090;2022-08-04T03:50:41;16.80;99.90
11003;DHT22;5554;55.796;13.090;2022-08-04T03:53:28;16.70;99.90
11003;DHT22;5554;55.796;13.090;2022-08-04T03:56:25;16.70;99.90
11003;DHT22;5554;55.796;13.090;2022-08-04T03:59:23;16.90;99.90
11003;DHT22;5554;55.796;13.090;2022-08-04T04:02:12;17.00;99.90
11003;DHT22;5554;55.796;13.090;2022-08-04T04:08:23;17.20;99.90
11003;DHT22;5554;55.796;13.090;2022-08-04T04:13:58;17.40;99.90
11003;DHT22;5554;55.796;13.090;2022-08-04T04:16:44;17.50;99.90
11003;DHT22;5554;55.796;13.090;2022-08-04T04:19:24;17.80;99.90
11003;DHT22;5554;55.796;13.090;2022-08-04T04:22:06;17.80;99.90
11003;DHT22;5554;55.796;13.090;2022-08-04T04:24:49;18.10;99.90
11003;DHT22;5554;55.796;13.090;2022-08-04T04:27:33;18.20;99.90
11003;DHT22;5554;55.796;13.090;2022-08-04T04:30:11;18.30;99.90
11003;DHT22;5554;55.796;13.090;2022-08-04T04:32:56;18.40;99.90
11003;DHT22;5554;55.796;13.090;2022-08-04T04:35:33;18.40;99.90
11003;DHT22;5554;55.796;13.090;2022-08-04T04:38:29;18.40;99.90
11003;DHT22;5554;55.796;13.090;2022-08-04T04:41:30;18.50;99.90
11003;DHT22;5554;55.796;13.090;2022-08-04T04:44:28;18.60;99.90
11003;DHT22;5554;55.796;13.090;2022-08-04T04:47:06;18.70;99.90
11003;DHT22;5554;55.796;13.090;2022-08-04T04:49:44;18.70;99.90
11003;DHT22;5554;55.796;13.090;2022-08-04T04:52:20;18.80;99.90
11003;DHT22;5554;55.796;13.090;2022-08-04T04:54:52;18.90;99.90
11003;DHT22;5554;55.796;13.090;2022-08-04T04:57:29;18.90;99.90
11003;DHT22;5554;55.796;13.090;2022-08-04T05:00:03;19.00;99.90
11003;DHT22;5554;55.796;13.090;2022-08-04T05:06:06;19.00;99.90
11003;DHT22;5554;55.796;13.090;2022-08-04T05:08:58;19.10;99.90
11003;DHT22;5554;55.796;13.090;2022-08-04T05:14:53;19.40;99.90
11003;DHT22;5554;55.796;13.090;2022-08-04T05:17:26;19.50;99.90
11003;DHT22;5554;55.796;13.090;2022-08-04T05:19:59;19.70;99.90
11003;DHT22;5554;55.796;13.090;2022-08-04T05:22:29;19.80;99.90
11003;DHT22;5554;55.796;13.090;2022-08-04T05:25:04;19.80;99.90
11003;DHT22;5554;55.796;13.090;2022-08-04T05:27:37;19.70;99.90
11003;DHT22;5554;55.796;13.090;2022-08-04T05:30:08;19.80;99.90
11003;DHT22;5554;55.796;13.090;2022-08-04T05:32:47;20.10;99.90
11003;DHT22;5554;55.796;13.090;2022-08-04T05:35:23;20.70;99.90
11003;DHT22;5554;55.796;13.090;2022-08-04T05:37:52;20.90;99.90
11003;DHT22;5554;55.796;13.090;2022-08-04T05:40:22;21.00;99.90
11003;DHT22;5554;55.796;13.090;2022-08-04T05:42:51;21.10;99.90
11003;DHT22;5554;55.796;13.090;2022-08-04T05:45:21;21.00;99.90
11003;DHT22;5554;55.796;13.090;2022-08-04T05:47:50;20.90;99.90
11003;DHT22;5554;55.796;13.090;2022-08-04T05:50:19;20.90;99.90
11003;DHT22;5554;55.796;13.090;2022-08-04T05:52:47;20.80;99.90
11003;DHT22;5554;55.796;13.090;2022-08-04T05:55:16;20.90;99.90
11003;DHT22;5554;55.796;13.090;2022-08-04T05:57:47;21.10;99.90
11003;DHT22;5554;55.796;13.090;2022-08-04T06:00:15;21.20;99.90
11003;DHT22;5554;55.796;13.090;2022-08-04T06:02:49;21.40;99.90
11003;DHT22;5554;55.796;13.090;2022-08-04T06:05:17;21.40;99.90
11003;DHT22;5554;55.796;13.090;2022-08-04T06:07:44;21.60;99.90
11003;DHT22;5554;55.796;13.090;2022-08-04T06:10:24;21.80;99.90
11003;DHT22;5554;55.796;13.090;2022-08-04T06:12:54;21.80;99.90
11003;DHT22;5554;55.796;13.090;2022-08-04T06:15:25;21.90;99.90
11003;DHT22;5554;55.796;13.090;2022-08-04T06:17:57;22.00;99.90
11003;DHT22;5554;55.796;13.090;2022-08-04T06:20:30;22.10;99.90
11003;DHT22;5554;55.796;13.090;2022-08-04T06:23:01;22.10;99.90
11003;DHT22;5554;55.796;13.090;2022-08-04T06:25:31;22.30;99.90
11003;DHT22;5554;55.796;13.090;2022-08-04T06:28:00;22.40;99.90
11003;DHT22;5554;55.796;13.090;2022-08-04T06:30:33;22.50;99.90
11003;DHT22;5554;55.796;13.090;2022-08-04T06:33:03;22.70;99.90
11003;DHT22;5554;55.796;13.090;2022-08-04T06:35:39;22.90;99.90
11003;DHT22;5554;55.796;13.090;2022-08-04T06:38:07;22.90;99.90
11003;DHT22;5554;55.796;13.090;2022-08-04T06:40:35;23.00;99.90
11003;DHT22;5554;55.796;13.090;2022-08-04T06:43:04;23.00;99.90
11003;DHT22;5554;55.796;13.090;2022-08-04T06:45:34;23.20;99.90
11003;DHT22;5554;55.796;13.090;2022-08-04T06:48:05;23.20;99.90
11003;DHT22;5554;55.796;13.090;2022-08-04T06:50:34;23.40;99.90
11003;DHT22;5554;55.796;13.090;2022-08-04T06:53:16;23.40;99.90
11003;DHT22;5554;55.796;13.090;2022-08-04T06:55:45;23.60;99.90
11003;DHT22;5554;55.796;13.090;2022-08-04T06:58:14;23.70;99.90
11003;DHT22;5554;55.796;13.090;2022-08-04T07:00:43;23.80;99.90
11003;DHT22;5554;55.796;13.090;2022-08-04T07:03:14;23.90;99.90
11003;DHT22;5554;55.796;13.090;2022-08-04T07:05:42;24.00;99.90
11003;DHT22;5554;55.796;13.090;2022-08-04T07:08:10;24.20;99.90
11003;DHT22;5554;55.796;13.090;2022-08-04T07:10:38;24.20;99.90
11003;DHT22;5554;55.796;13.090;2022-08-04T07:13:07;24.30;99.90
11003;DHT22;5554;55.796;13.090;2022-08-04T07:15:42;24.50;99.90
11003;DHT22;5554;55.796;13.090;2022-08-04T07:18:12;24.80;99.90
11003;DHT22;5554;55.796;13.090;2022-08-04T07:20:52;24.80;99.90
11003;DHT22;5554;55.796;13.090;2022-08-04T07:23:26;25.00;99.90
11003;DHT22;5554;55.796;13.090;2022-08-04T07:25:54;25.20;99.90
11003;DHT22;5554;55.796;13.090;2022-08-04T07:28:25;25.30;99.90
11003;DHT22;5554;55.796;13.090;2022-08-04T07:30:54;25.40;99.90
11003;DHT22;5554;55.796;13.090;2022-08-04T07:33:27;25.50;99.90
11003;DHT22;5554;55.796;13.090;2022-08-04T07:35:55;25.70;99.90
11003;DHT22;5554;55.796;13.090;2022-08-04T07:38:22;25.70;99.90
11003;DHT22;5554;55.796;13.090;2022-08-04T07:40:49;26.10;99.90
11003;DHT22;5554;55.796;13.090;2022-08-04T07:43:16;26.10;99.90
11003;DHT22;5554;55.796;13.090;2022-08-04T07:45:46;26.20;99.90
11003;DHT22;5554;55.796;13.090;2022-08-04T07:48:24;26.30;99.90
11003;DHT22;5554;55.796;13.090;2022-08-04T07:50:52;26.40;99.90
11003;DHT22;5554;55.796;13.090;2022-08-04T07:53:20;26.50;1.00
11003;DHT22;5554;55.796;13.090;2022-08-04T07:55:48;26.70;99.90
11003;DHT22;5554;55.796;13.090;2022-08-04T07:58:15;26.60;99.90
11003;DHT22;5554;55.796;13.090;2022-08-04T08:00:43;26.70;3.70
11003;DHT22;5554;55.796;13.090;2022-08-04T08:03:12;26.70;99.90
11003;DHT22;5554;55.796;13.090;2022-08-04T08:05:42;26.90;1.00
11003;DHT22;5554;55.796;13.090;2022-08-04T08:08:17;27.00;99.90
11003;DHT22;5554;55.796;13.090;2022-08-04T08:10:46;27.10;1.00
11003;DHT22;5554;55.796;13.090;2022-08-04T08:13:14;27.40;1.00
11003;DHT22;5554;55.796;13.090;2022-08-04T08:15:44;27.50;99.90
11003;DHT22;5554;55.796;13.090;2022-08-04T08:18:11;27.60;1.00
11003;DHT22;5554;55.796;13.090;2022-08-04T08:20:38;27.60;99.90
11003;DHT22;5554;55.796;13.090;2022-08-04T08:23:07;27.80;1.00
11003;DHT22;5554;55.796;13.090;2022-08-04T08:25:38;27.90;99.90
11003;DHT22;5554;55.796;13.090;2022-08-04T08:28:19;28.00;99.90
11003;DHT22;5554;55.796;13.090;2022-08-04T08:30:55;28.10;1.00
11003;DHT22;5554;55.796;13.090;2022-08-04T08:36:33;28.30;99.90
11003;DHT22;5554;55.796;13.090;2022-08-04T08:39:05;28.40;1.00
11003;DHT22;5554;55.796;13.090;2022-08-04T08:42:05;28.40;1.00
11003;DHT22;5554;55.796;13.090;2022-08-04T08:44:57;28.60;99.90
11003;DHT22;5554;55.796;13.090;2022-08-04T08:47:38;29.00;99.90
11003;DHT22;5554;55.796;13.090;2022-08-04T08:50:36;29.60;23.60
11003;DHT22;5554;55.796;13.090;2022-08-04T08:53:32;30.20;1.00
11003;DHT22;5554;55.796;13.090;2022-08-04T08:56:14;31.00;99.90
11003;DHT22;5554;55.796;13.090;2022-08-04T09:01:48;32.90;99.90
11003;DHT22;5554;55.796;13.090;2022-08-04T09:04:51;33.50;1.00
11003;DHT22;5554;55.796;13.090;2022-08-04T09:10:17;34.00;99.90
11003;DHT22;5554;55.796;13.090;2022-08-04T09:12:51;34.20;99.90
11003;DHT22;5554;55.796;13.090;2022-08-04T09:15:26;34.20;99.90
11003;DHT22;5554;55.796;13.090;2022-08-04T09:18:04;34.60;52.50
11003;DHT22;5554;55.796;13.090;2022-08-04T09:20:38;35.20;5.30
11003;DHT22;5554;55.796;13.090;2022-08-04T09:23:12;35.60;1.00
11003;DHT22;5554;55.796;13.090;2022-08-04T09:25:47;35.00;1.00
11003;DHT22;5554;55.796;13.090;2022-08-04T09:28:22;35.30;1.00
11003;DHT22;5554;55.796;13.090;2022-08-04T09:30:54;35.70;1.00
11003;DHT22;5554;55.796;13.090;2022-08-04T09:33:30;35.50;1.00
11003;DHT22;5554;55.796;13.090;2022-08-04T09:36:03;36.00;1.00
11003;DHT22;5554;55.796;13.090;2022-08-04T09:38:38;35.70;1.00
11003;DHT22;5554;55.796;13.090;2022-08-04T09:41:15;35.20;1.00
11003;DHT22;5554;55.796;13.090;2022-08-04T09:43:55;35.40;1.00
11003;DHT22;5554;55.796;13.090;2022-08-04T09:46:32;36.00;1.00
11003;DHT22;5554;55.796;13.090;2022-08-04T09:49:03;36.00;1.00
11003;DHT22;5554;55.796;13.090;2022-08-04T09:51:48;36.60;1.00
11003;DHT22;5554;55.796;13.090;2022-08-04T09:54:21;36.70;1.00
11003;DHT22;5554;55.796;13.090;2022-08-04T09:56:55;36.60;1.00
11003;DHT22;5554;55.796;13.090;2022-08-04T09:59:28;37.00;1.00
11003;DHT22;5554;55.796;13.090;2022-08-04T10:02:00;36.80;1.00
11003;DHT22;5554;55.796;13.090;2022-08-04T10:04:31;36.90;1.00
11003;DHT22;5554;55.796;13.090;2022-08-04T10:10:14;37.20;1.00
11003;DHT22;5554;55.796;13.090;2022-08-04T10:12:55;36.60;1.00
11003;DHT22;5554;55.796;13.090;2022-08-04T10:15:32;37.10;1.00
11003;DHT22;5554;55.796;13.090;2022-08-04T10:18:10;36.80;1.00
11003;DHT22;5554;55.796;13.090;2022-08-04T10:21:00;36.50;1.00
11003;DHT22;5554;55.796;13.090;2022-08-04T10:23:47;37.00;1.00
11003;DHT22;5554;55.796;13.090;2022-08-04T10:26:29;37.50;1.00
11003;DHT22;5554;55.796;13.090;2022-08-04T10:29:05;37.80;1.00
11003;DHT22;5554;55.796;13.090;2022-08-04T10:31:38;37.50;1.00
11003;DHT22;5554;55.796;13.090;2022-08-04T10:34:11;37.60;1.00
11003;DHT22;5554;55.796;13.090;2022-08-04T10:36:43;37.60;1.00
11003;DHT22;5554;55.796;13.090;2022-08-04T10:39:16;38.30;1.00
11003;DHT22;5554;55.796;13.090;2022-08-04T10:41:51;38.60;1.00
11003;DHT22;5554;55.796;13.090;2022-08-04T10:44:27;37.80;1.00
11003;DHT22;5554;55.796;13.090;2022-08-04T10:47:03;37.30;1.00
11003;DHT22;5554;55.796;13.090;2022-08-04T10:49:37;36.70;1.00
11003;DHT22;5554;55.796;13.090;2022-08-04T10:52:16;37.30;1.00
11003;DHT22;5554;55.796;13.090;2022-08-04T10:54:52;37.90;1.00
11003;DHT22;5554;55.796;13.090;2022-08-04T10:57:28;37.70;1.00
11003;DHT22;5554;55.796;13.090;2022-08-04T11:00:00;38.00;1.00
11003;DHT22;5554;55.796;13.090;2022-08-04T11:02:38;38.00;1.00
11003;DHT22;5554;55.796;13.090;2022-08-04T11:05:16;37.40;1.00
11003;DHT22;5554;55.796;13.090;2022-08-04T11:07:46;37.10;1.00
11003;DHT22;5554;55.796;13.090;2022-08-04T11:10:16;37.10;1.00
11003;DHT22;5554;55.796;13.090;2022-08-04T11:12:46;37.50;1.00
11003;DHT22;5554;55.796;13.090;2022-08-04T11:15:19;38.00;1.00
11003;DHT22;5554;55.796;13.090;2022-08-04T11:17:52;37.70;1.00
11003;DHT22;5554;55.796;13.090;2022-08-04T11:20:26;38.00;1.00
11003;DHT22;5554;55.796;13.090;2022-08-04T11:23:02;38.60;1.00
11003;DHT22;5554;55.796;13.090;2022-08-04T11:25:35;38.00;1.00
11003;DHT22;5554;55.796;13.090;2022-08-04T11:28:18;38.40;1.00
11003;DHT22;5554;55.796;13.090;2022-08-04T11:30:51;37.40;1.00
11003;DHT22;5554;55.796;13.090;2022-08-04T11:33:33;38.20;1.00
11003;DHT22;5554;55.796;13.090;2022-08-04T11:36:05;38.10;1.00
11003;DHT22;5554;55.796;13.090;2022-08-04T11:38:37;37.90;1.00
11003;DHT22;5554;55.796;13.090;2022-08-04T11:41:12;38.10;1.00
11003;DHT22;5554;55.796;13.090;2022-08-04T11:43:47;38.10;1.00
11003;DHT22;5554;55.796;13.090;2022-08-04T11:46:22;38.70;1.00
11003;DHT22;5554;55.796;13.090;2022-08-04T11:48:57;38.60;1.00
11003;DHT22;5554;55.796;13.090;2022-08-04T11:51:26;38.40;1.00
11003;DHT22;5554;55.796;13.090;2022-08-04T11:53:54;38.60;1.00
11003;DHT22;5554;55.796;13.090;2022-08-04T11:56:22;38.30;1.00
11003;DHT22;5554;55.796;13.090;2022-08-04T11:58:49;38.10;1.00
11003;DHT22;5554;55.796;13.090;2022-08-04T12:01:22;36.60;1.00
11003;DHT22;5554;55.796;13.090;2022-08-04T12:04:01;36.30;1.00
11003;DHT22;5554;55.796;13.090;2022-08-04T12:06:32;36.60;1.00
11003;DHT22;5554;55.796;13.090;2022-08-04T12:09:08;36.80;1.00
11003;DHT22;5554;55.796;13.090;2022-08-04T12:11:53;36.60;1.00
11003;DHT22;5554;55.796;13.090;2022-08-04T12:14:27;36.70;1.00
11003;DHT22;5554;55.796;13.090;2022-08-04T12:16:58;37.30;1.00
11003;DHT22;5554;55.796;13.090;2022-08-04T12:19:33;37.30;1.00
11003;DHT22;5554;55.796;13.090;2022-08-04T12:22:03;37.00;1.00
11003;DHT22;5554;55.796;13.090;2022-08-04T12:24:35;37.20;1.00
11003;DHT22;5554;55.796;13.090;2022-08-04T12:27:17;37.60;1.00
11003;DHT22;5554;55.796;13.090;2022-08-04T12:29:46;36.60;1.00
11003;DHT22;5554;55.796;13.090;2022-08-04T12:32:19;36.40;1.00
11003;DHT22;5554;55.796;13.090;2022-08-04T12:34:57;35.90;1.00
11003;DHT22;5554;55.796;13.090;2022-08-04T12:37:34;35.90;1.00
11003;DHT22;5554;55.796;13.090;2022-08-04T12:40:12;35.00;1.00
11003;DHT22;5554;55.796;13.090;2022-08-04T12:42:44;34.90;1.00
11003;DHT22;5554;55.796;13.090;2022-08-04T12:45:14;34.80;1.00
11003;DHT22;5554;55.796;13.090;2022-08-04T12:47:45;34.60;1.00
11003;DHT22;5554;55.796;13.090;2022-08-04T12:50:15;33.50;1.00
11003;DHT22;5554;55.796;13.090;2022-08-04T12:52:47;33.40;1.00
11003;DHT22;5554;55.796;13.090;2022-08-04T12:55:16;33.90;1.00
11003;DHT22;5554;55.796;13.090;2022-08-04T12:57:44;34.20;1.00
11003;DHT22;5554;55.796;13.090;2022-08-04T13:00:23;34.50;1.00
11003;DHT22;5554;55.796;13.090;2022-08-04T13:02:50;34.60;1.00
11003;DHT22;5554;55.796;13.090;2022-08-04T13:05:20;34.90;1.00
11003;DHT22;5554;55.796;13.090;2022-08-04T13:07:49;34.80;1.00
11003;DHT22;5554;55.796;13.090;2022-08-04T13:10:19;35.40;1.00
11003;DHT22;5554;55.796;13.090;2022-08-04T13:12:55;35.40;1.00
11003;DHT22;5554;55.796;13.090;2022-08-04T13:15:24;34.90;1.00
11003;DHT22;5554;55.796;13.090;2022-08-04T13:17:55;34.90;1.00
11003;DHT22;5554;55.796;13.090;2022-08-04T13:20:28;34.10;1.00
11003;DHT22;5554;55.796;13.090;2022-08-04T13:23:03;34.20;1.00
11003;DHT22;5554;55.796;13.090;2022-08-04T13:25:42;34.70;1.00
11003;DHT22;5554;55.796;13.090;2022-08-04T13:28:14;34.30;1.00
11003;DHT22;5554;55.796;13.090;2022-08-04T13:30:43;34.70;1.00
11003;DHT22;5554;55.796;13.090;2022-08-04T13:33:11;34.40;1.00
11003;DHT22;5554;55.796;13.090;2022-08-04T13:35:44;34.30;1.00
11003;DHT22;5554;55.796;13.090;2022-08-04T13:38:12;34.60;1.00
11003;DHT22;5554;55.796;13.090;2022-08-04T13:40:41;34.40;1.00
11003;DHT22;5554;55.796;13.090;2022-08-04T13:43:12;34.40;1.00
11003;DHT22;5554;55.796;13.090;2022-08-04T13:45:48;34.30;1.00
11003;DHT22;5554;55.796;13.090;2022-08-04T13:48:17;34.40;1.00
11003;DHT22;5554;55.796;13.090;2022-08-04T13:50:47;34.40;1.00
11003;DHT22;5554;55.796;13.090;2022-08-04T13:53:17;34.40;1.00
11003;DHT22;5554;55.796;13.090;2022-08-04T13:55:45;34.30;1.00
11003;DHT22;5554;55.796;13.090;2022-08-04T13:58:20;34.30;1.00
11003;DHT22;5554;55.796;13.090;2022-08-04T14:00:52;34.40;1.00
11003;DHT22;5554;55.796;13.090;2022-08-04T14:03:25;34.00;1.00
11003;DHT22;5554;55.796;13.090;2022-08-04T14:06:17;33.90;1.00
11003;DHT22;5554;55.796;13.090;2022-08-04T14:08:49;34.00;1.00
11003;DHT22;5554;55.796;13.090;2022-08-04T14:11:18;33.70;1.00
11003;DHT22;5554;55.796;13.090;2022-08-04T14:13:46;33.70;1.00
11003;DHT22;5554;55.796;13.090;2022-08-04T14:16:25;33.20;1.00
11003;DHT22;5554;55.796;13.090;2022-08-04T14:18:58;32.90;1.00
11003;DHT22;5554;55.796;13.090;2022-08-04T14:21:27;32.90;1.00
11003;DHT22;5554;55.796;13.090;2022-08-04T14:23:55;33.30;1.00
11003;DHT22;5554;55.796;13.090;2022-08-04T14:26:25;33.40;1.00
11003;DHT22;5554;55.796;13.090;2022-08-04T14:29:06;33.30;1.00
11003;DHT22;5554;55.796;13.090;2022-08-04T14:31:33;33.20;1.00
11003;DHT22;5554;55.796;13.090;2022-08-04T14:34:00;33.30;1.00
11003;DHT22;5554;55.796;13.090;2022-08-04T14:36:40;33.50;1.00
11003;DHT22;5554;55.796;13.090;2022-08-04T14:39:08;33.20;1.00
11003;DHT22;5554;55.796;13.090;2022-08-04T14:41:47;32.90;1.00
11003;DHT22;5554;55.796;13.090;2022-08-04T14:44:15;32.60;1.00
11003;DHT22;5554;55.796;13.090;2022-08-04T14:46:52;32.80;1.00
11003;DHT22;5554;55.796;13.090;2022-08-04T14:49:20;32.90;1.00
11003;DHT22;5554;55.796;13.090;2022-08-04T14:51:54;32.90;1.00
11003;DHT22;5554;55.796;13.090;2022-08-04T14:54:26;33.20;1.00
11003;DHT22;5554;55.796;13.090;2022-08-04T14:57:02;33.00;1.00
11003;DHT22;5554;55.796;13.090;2022-08-04T14:59:40;33.00;1.00
11003;DHT22;5554;55.796;13.090;2022-08-04T15:02:07;32.80;1.00
11003;DHT22;5554;55.796;13.090;2022-08-04T15:04:36;32.90;1.00
11003;DHT22;5554;55.796;13.090;2022-08-04T15:07:06;32.90;1.00
11003;DHT22;5554;55.796;13.090;2022-08-04T15:09:34;32.90;1.00
11003;DHT22;5554;55.796;13.090;2022-08-04T15:12:02;32.70;1.00
11003;DHT22;5554;55.796;13.090;2022-08-04T15:14:30;32.70;1.00
11003;DHT22;5554;55.796;13.090;2022-08-04T15:16:57;32.90;1.00
11003;DHT22;5554;55.796;13.090;2022-08-04T15:19:27;32.90;1.00
11003;DHT22;5554;55.796;13.090;2022-08-04T15:21:55;32.90;1.00
11003;DHT22;5554;55.796;13.090;2022-08-04T15:24:23;32.90;1.00
11003;DHT22;5554;55.796;13.090;2022-08-04T15:26:52;32.80;1.00
11003;DHT22;5554;55.796;13.090;2022-08-04T15:29:25;32.70;1.00
11003;DHT22;5554;55.796;13.090;2022-08-04T15:31:54;32.60;1.00
11003;DHT22;5554;55.796;13.090;2022-08-04T15:34:21;32.70;1.00
11003;DHT22;5554;55.796;13.090;2022-08-04T15:36:52;32.70;1.00
11003;DHT22;5554;55.796;13.090;2022-08-04T15:39:27;32.70;1.00
11003;DHT22;5554;55.796;13.090;2022-08-04T15:42:06;32.80;1.00
11003;DHT22;5554;55.796;13.090;2022-08-04T15:45:03;32.70;1.00
11003;DHT22;5554;55.796;13.090;2022-08-04T15:47:37;32.60;1.00
11003;DHT22;5554;55.796;13.090;2022-08-04T15:50:07;32.70;1.00
11003;DHT22;5554;55.796;13.090;2022-08-04T15:52:59;32.60;1.00
11003;DHT22;5554;55.796;13.090;2022-08-04T15:55:42;32.50;1.00
11003;DHT22;5554;55.796;13.090;2022-08-04T15:58:23;32.40;1.00
11003;DHT22;5554;55.796;13.090;2022-08-04T16:01:12;32.50;1.00
11003;DHT22;5554;55.796;13.090;2022-08-04T16:03:48;32.60;1.00
11003;DHT22;5554;55.796;13.090;2022-08-04T16:06:41;32.50;1.00
11003;DHT22;5554;55.796;13.090;2022-08-04T16:09:23;32.70;1.00
11003;DHT22;5554;55.796;13.090;2022-08-04T16:11:52;32.80;1.00
11003;DHT22;5554;55.796;13.090;2022-08-04T16:14:33;32.90;1.00
11003;DHT22;5554;55.796;13.090;2022-08-04T16:17:16;33.00;1.00
11003;DHT22;5554;55.796;13.090;2022-08-04T16:20:07;32.90;1.00
11003;DHT22;5554;55.796;13.090;2022-08-04T16:22:38;32.70;1.00
11003;DHT22;5554;55.796;13.090;2022-08-04T16:25:13;32.30;1.00
11003;DHT22;5554;55.796;13.090;2022-08-04T16:27:44;32.10;1.00
11003;DHT22;5554;55.796;13.090;2022-08-04T16:30:18;32.10;1.00
11003;DHT22;5554;55.796;13.090;2022-08-04T16:32:47;32.10;1.00
11003;DHT22;5554;55.796;13.090;2022-08-04T16:35:23;32.00;1.00
11003;DHT22;5554;55.796;13.090;2022-08-04T16:38:10;31.90;1.00
11003;DHT22;5554;55.796;13.090;2022-08-04T16:40:41;31.70;1.00
11003;DHT22;5554;55.796;13.090;2022-08-04T16:43:36;31.50;1.00
11003;DHT22;5554;55.796;13.090;2022-08-04T16:46:04;31.30;1.00
11003;DHT22;5554;55.796;13.090;2022-08-04T16:48:41;31.10;1.00
11003;DHT22;5554;55.796;13.090;2022-08-04T16:51:35;30.90;1.00
11003;DHT22;5554;55.796;13.090;2022-08-04T16:54:10;30.70;1.00
11003;DHT22;5554;55.796;13.090;2022-08-04T16:56:37;30.50;1.00
11003;DHT22;5554;55.796;13.090;2022-08-04T16:59:17;30.50;1.00
11003;DHT22;5554;55.796;13.090;2022-08-04T17:01:45;30.40;1.00
11003;DHT22;5554;55.796;13.090;2022-08-04T17:04:34;30.40;1.00
11003;DHT22;5554;55.796;13.090;2022-08-04T17:07:04;30.30;1.00